Lucille Brooks — WDG5458 — position and weather

sailwx.info

Track history (hours):
 
Tides and Currents Weather Stations Pressure Air Temp Water Temp Dewpoint Dewpoint Depression Visibility Wind Speed Wind Dir Waves Ship Positions

Lucille Brooks

Owner: Kirby Inland Marine, LP, Houston, TX. More information available from US FCC via Universal Licensing System and Coast Guard Vessel Documentation Center.

Last reported at 2017-Sep-19 20:26 UTC. Time now 2017-Sep-19 20:47 UTC.
Position N 29°44' W 095°08'.

Length 110 m; draft 2.9 m.

Type: . MMSI: 367024990.

Date/timePositionNaut miles runAvg speedWind from/ knotsBaromVisibWave heightAir tempDewpointWater temp
2017-Sep-19 20:26N 29°44' W 095°08'8 3.5
2017-Sep-19 18:10N 29°45' W 095°17'2 4.4
2017-Sep-19 17:45N 29°44' W 095°15'1 5.4
2017-Sep-19 17:29N 29°44' W 095°14'4 6.1
2017-Sep-19 16:48N 29°44' W 095°09'2 5.9
2017-Sep-19 16:29N 29°44' W 095°07'1 1.2
2017-Sep-19 15:19N 29°45' W 095°06'0 0.1
2017-Sep-19 14:16N 29°45' W 095°06'3 0.8
2017-Sep-19 11:06N 29°44' W 095°03'0 5.2
2017-Sep-19 11:00N 29°44' W 095°02'1 1.4
2017-Sep-19 10:19N 29°44' W 095°01'1 2.1
2017-Sep-19 10:00N 29°44' W 095°02'1 0.1
2017-Sep-19 05:29N 29°44' W 095°03'1 2.5
2017-Sep-19 05:00N 29°44' W 095°01'1 3.0
2017-Sep-19 04:30N 29°44' W 095°03'1 2.3
2017-Sep-19 04:00N 29°45' W 095°04'0 0.2
2017-Sep-19 03:30N 29°45' W 095°04'1 1.1
2017-Sep-19 02:58N 29°45' W 095°04'2 0.6
2017-Sep-18 23:46N 29°45' W 095°06'0 0.5
2017-Sep-18 23:25N 29°45' W 095°06'1 1.8
2017-Sep-18 22:58N 29°45' W 095°06'0 0.0
2017-Sep-18 19:17N 29°45' W 095°06'0 0.1
2017-Sep-18 18:37N 29°45' W 095°06'0 0.3
2017-Sep-18 18:17N 29°45' W 095°06'1 3.5
2017-Sep-18 17:54N 29°46' W 095°05'0 0.1
2017-Sep-18 14:22N 29°46' W 095°05'2 2.2
2017-Sep-18 13:34N 29°45' W 095°06'0 3.4
2017-Sep-18 13:29N 29°45' W 095°06'2 1.6
2017-Sep-18 12:07N 29°44' W 095°03'1 6.3
2017-Sep-18 12:00N 29°44' W 095°03'1 1.8
2017-Sep-18 11:12N 29°43' W 095°01'0 1.2
2017-Sep-18 10:52N 29°44' W 095°01'0 0.0
2017-Sep-18 08:22N 29°44' W 095°01'0 0.0
2017-Sep-18 07:25N 29°44' W 095°01'0 0.0
2017-Sep-18 07:00N 29°44' W 095°01'2 4.9
2017-Sep-18 06:30N 29°45' W 095°04'2 2.1
2017-Sep-18 05:28N 29°47' W 095°04'2 2.9
2017-Sep-18 04:49N 29°46' W 095°05'1 2.0
2017-Sep-18 04:14N 29°45' W 095°06'0 0.0
2017-Sep-18 02:32N 29°45' W 095°06'0 1.2
2017-Sep-18 02:27N 29°45' W 095°06'1 0.5
2017-Sep-17 23:58N 29°46' W 095°05'0 0.2
2017-Sep-17 23:26N 29°46' W 095°05'2 1.7
2017-Sep-17 22:21N 29°44' W 095°07'1 0.8
2017-Sep-17 20:32N 29°45' W 095°06'0 5.8
2017-Sep-17 20:26N 29°46' W 095°05'0 0.7
2017-Sep-17 19:49N 29°46' W 095°05'0 1.3
2017-Sep-17 19:30N 29°46' W 095°05'0 0.1
2017-Sep-17 17:44N 29°46' W 095°05'3 7.4
2017-Sep-17 17:22N 29°44' W 095°08'5 6.0
2017-Sep-17 16:30N 29°44' W 095°14'3 0.8
2017-Sep-17 13:29N 29°45' W 095°11'3 5.0
2017-Sep-17 12:50N 29°44' W 095°08'3 4.5
2017-Sep-17 12:15N 29°46' W 095°05'1 0.4
2017-Sep-17 08:49N 29°47' W 095°05'1 2.0
2017-Sep-17 08:16N 29°46' W 095°05'1 0.3
2017-Sep-17 05:36N 29°45' W 095°06'2 1.1
2017-Sep-17 03:41N 29°44' W 095°03'1 5.2
2017-Sep-17 03:30N 29°44' W 095°02'2 3.9
2017-Sep-17 03:00N 29°42' W 095°01'2 2.7
2017-Sep-17 02:21N 29°43' W 095°03'0 0.0
2017-Sep-16 20:02N 29°43' W 095°03'0 0.0
2017-Sep-16 19:44N 29°43' W 095°03'0 0.0
2017-Sep-16 19:30N 29°43' W 095°03'0 0.0
2017-Sep-16 18:58N 29°43' W 095°03'0 0.0
2017-Sep-16 18:29N 29°43' W 095°03'0 0.0
2017-Sep-16 17:44N 29°43' W 095°03'0 0.0
2017-Sep-16 17:29N 29°43' W 095°03'0 0.0
2017-Sep-16 17:00N 29°43' W 095°03'2 3.8
2017-Sep-16 16:30N 29°43' W 095°01'3 6.8
2017-Sep-16 16:00N 29°45' W 095°04'2 0.6
2017-Sep-16 12:02N 29°48' W 095°04'2 4.0
2017-Sep-16 11:34N 29°46' W 095°05'0 5.2
2017-Sep-16 11:30N 29°46' W 095°05'3 5.7
2017-Sep-16 10:54N 29°44' W 095°09'4 5.8
2017-Sep-16 10:10N 29°44' W 095°14'0 0.6
2017-Sep-16 09:59N 29°44' W 095°14'0 0.1
2017-Sep-16 09:29N 29°44' W 095°14'0 0.0
2017-Sep-16 08:52N 29°44' W 095°14'0 0.0
2017-Sep-16 08:30N 29°44' W 095°14'0 0.0
2017-Sep-16 08:00N 29°44' W 095°14'2 2.2
2017-Sep-16 07:09N 29°44' W 095°12'1 6.1
2017-Sep-16 06:58N 29°45' W 095°11'3 5.8
2017-Sep-16 06:30N 29°44' W 095°08'4 1.4
2017-Sep-16 03:42N 29°47' W 095°05'1 3.2
2017-Sep-16 03:23N 29°46' W 095°05'1 1.5
2017-Sep-16 02:24N 29°45' W 095°06'2 0.5
2017-Sep-15 23:05N 29°46' W 095°05'1 0.4
2017-Sep-15 21:16N 29°45' W 095°06'0 1.2
2017-Sep-15 20:55N 29°46' W 095°06'0 0.0
2017-Sep-15 19:25N 29°46' W 095°06'1 0.4
2017-Sep-15 18:05N 29°46' W 095°05'2 6.3
2017-Sep-15 17:48N 29°44' W 095°06'2 6.0
2017-Sep-15 17:30N 29°44' W 095°08'1 0.3
2017-Sep-15 13:07N 29°45' W 095°10'0 1.3
2017-Sep-15 13:00N 29°45' W 095°10'0 0.0
2017-Sep-15 12:24N 29°45' W 095°10'0 0.0
2017-Sep-15 10:41N 29°45' W 095°10'0 0.0
2017-Sep-15 10:22N 29°45' W 095°10'0 0.0
2017-Sep-15 09:41N 29°44' W 095°10'0 0.0
2017-Sep-15 09:21N 29°44' W 095°10'0 0.0
2017-Sep-15 08:33N 29°44' W 095°10'0 0.1
2017-Sep-15 08:29N 29°44' W 095°10'0 0.0
2017-Sep-15 07:59N 29°44' W 095°10'0 0.0
2017-Sep-15 07:29N 29°44' W 095°10'0 0.0
2017-Sep-15 06:58N 29°45' W 095°10'0 0.0
2017-Sep-15 06:30N 29°44' W 095°10'0 0.0
2017-Sep-15 06:00N 29°44' W 095°10'0 0.0
2017-Sep-15 05:30N 29°45' W 095°10'0 0.0
2017-Sep-15 04:59N 29°44' W 095°10'0 0.0
2017-Sep-15 04:29N 29°44' W 095°10'0 0.0
2017-Sep-15 04:00N 29°44' W 095°10'0 0.0
2017-Sep-15 03:27N 29°44' W 095°10'0 0.0
2017-Sep-15 03:00N 29°44' W 095°10'0 0.0
2017-Sep-15 02:30N 29°45' W 095°10'0 0.0
2017-Sep-15 01:59N 29°45' W 095°10'0 0.0
2017-Sep-15 01:29N 29°44' W 095°10'0 0.0
2017-Sep-15 00:59N 29°45' W 095°10'0 0.0
2017-Sep-15 00:30N 29°44' W 095°10'0 0.0
2017-Sep-14 23:06N 29°45' W 095°10'0 0.0
2017-Sep-14 22:58N 29°45' W 095°10'0 0.0
2017-Sep-14 21:49N 29°44' W 095°10'0 0.0
2017-Sep-14 21:24N 29°44' W 095°10'0 0.3
2017-Sep-14 21:00N 29°45' W 095°10'3 5.9
2017-Sep-14 20:30N 29°45' W 095°06'2 0.6
2017-Sep-14 16:30N 29°44' W 095°04'3 5.3
2017-Sep-14 16:00N 29°43' W 095°01'2 3.3
2017-Sep-14 15:30N 29°43' W 095°03'0 0.1
2017-Sep-14 13:35N 29°43' W 095°03'0 0.0
2017-Sep-14 13:17N 29°43' W 095°03'0 0.0
2017-Sep-14 13:00N 29°43' W 095°03'0 0.0
2017-Sep-14 12:28N 29°43' W 095°03'0 0.0
2017-Sep-14 12:00N 29°43' W 095°03'0 0.0
2017-Sep-14 05:29N 29°43' W 095°03'1 1.8
2017-Sep-14 05:00N 29°42' W 095°02'1 2.8
2017-Sep-14 04:30N 29°44' W 095°02'3 1.1
2017-Sep-14 01:46N 29°46' W 095°05'2 6.0
2017-Sep-14 01:26N 29°44' W 095°03'3 5.8
2017-Sep-14 01:00N 29°43' W 095°01'3 5.8
2017-Sep-14 00:30N 29°41' W 094°59'3 6.5
2017-Sep-14 00:00N 29°38' W 094°58'3 5.2
2017-Sep-13 23:30N 29°37' W 095°00'1 1.9
2017-Sep-13 23:00N 29°37' W 095°01'0 0.0
2017-Sep-13 22:30N 29°37' W 095°01'0 0.0
2017-Sep-13 22:00N 29°37' W 095°01'0 0.0
2017-Sep-13 21:30N 29°37' W 095°01'0 0.0
2017-Sep-13 21:00N 29°37' W 095°01'0 0.0
2017-Sep-13 20:30N 29°37' W 095°01'0 0.0
2017-Sep-13 20:00N 29°37' W 095°01'0 0.0
2017-Sep-13 19:30N 29°37' W 095°01'0 0.0
2017-Sep-13 19:00N 29°37' W 095°01'0 0.0
2017-Sep-13 18:30N 29°37' W 095°01'0 0.0
2017-Sep-13 18:00N 29°37' W 095°01'0 0.0
2017-Sep-13 17:30N 29°37' W 095°01'0 0.0
2017-Sep-13 17:00N 29°37' W 095°01'0 0.0
2017-Sep-13 16:30N 29°37' W 095°01'0 0.0
2017-Sep-13 16:00N 29°37' W 095°01'0 0.3
2017-Sep-13 15:30N 29°37' W 095°01'0 0.3
2017-Sep-13 15:00N 29°37' W 095°01'0 0.0
2017-Sep-13 14:30N 29°37' W 095°01'0 0.0
2017-Sep-13 14:00N 29°37' W 095°01'0 0.0
2017-Sep-13 13:30N 29°37' W 095°01'0 0.0
2017-Sep-13 13:00N 29°37' W 095°01'2 3.4
2017-Sep-13 12:30N 29°37' W 094°60'2 3.6
2017-Sep-13 12:00N 29°38' W 094°58'3 5.1
2017-Sep-13 11:30N 29°40' W 094°59'3 5.0
2017-Sep-13 11:00N 29°42' W 095°00'2 4.6
2017-Sep-13 10:29N 29°44' W 095°02'2 4.8
2017-Sep-13 10:00N 29°45' W 095°04'1 2.7
2017-Sep-13 09:30N 29°47' W 095°05'0 0.0
2017-Sep-13 08:20N 29°47' W 095°05'0 0.0
2017-Sep-13 07:54N 29°47' W 095°05'0 0.0
2017-Sep-13 07:30N 29°47' W 095°05'0 0.0
2017-Sep-13 06:03N 29°47' W 095°05'0 0.0
2017-Sep-13 05:57N 29°47' W 095°05'0 0.0
2017-Sep-13 05:24N 29°47' W 095°05'0 0.1
2017-Sep-13 05:00N 29°47' W 095°05'1 0.8
2017-Sep-13 04:04N 29°46' W 095°05'1 4.0
2017-Sep-13 03:50N 29°45' W 095°04'2 4.7
2017-Sep-13 03:30N 29°44' W 095°03'2 4.0
2017-Sep-13 03:00N 29°43' W 095°01'2 3.4
2017-Sep-13 02:30N 29°43' W 095°03'0 0.0
2017-Sep-12 16:28N 29°43' W 095°03'0 0.1
2017-Sep-12 15:58N 29°43' W 095°03'2 4.0
2017-Sep-12 15:30N 29°42' W 095°01'2 4.3
2017-Sep-12 15:00N 29°44' W 095°03'4 4.1
2017-Sep-12 14:04N 29°48' W 095°04'0 0.4
2017-Sep-12 13:52N 29°48' W 095°04'0 0.0
2017-Sep-12 13:30N 29°48' W 095°04'0 0.0
2017-Sep-12 13:00N 29°48' W 095°04'0 0.0
2017-Sep-12 12:19N 29°48' W 095°04'0 1.4
2017-Sep-12 12:00N 29°47' W 095°04'0 0.6
2017-Sep-12 11:27N 29°47' W 095°04'1 1.3
2017-Sep-12 11:00N 29°48' W 095°04'3 3.3
2017-Sep-12 10:01N 29°44' W 095°03'0 5.9
2017-Sep-12 09:57N 29°44' W 095°03'2 5.1
2017-Sep-12 09:29N 29°42' W 095°01'3 5.6
2017-Sep-12 09:00N 29°41' W 094°59'3 6.5
2017-Sep-12 08:30N 29°38' W 094°58'3 5.3
2017-Sep-12 08:00N 29°37' W 095°00'1 1.8
2017-Sep-12 07:30N 29°37' W 095°02'0 0.0
2017-Sep-12 07:00N 29°37' W 095°02'0 0.0
2017-Sep-12 06:30N 29°37' W 095°02'0 0.0
2017-Sep-12 06:00N 29°37' W 095°02'0 0.0
2017-Sep-12 05:30N 29°37' W 095°02'0 0.0
2017-Sep-12 05:00N 29°37' W 095°02'0 0.0
2017-Sep-12 04:30N 29°37' W 095°02'0 0.0
2017-Sep-12 04:00N 29°37' W 095°02'0 0.0
2017-Sep-12 03:30N 29°37' W 095°02'0 0.0
2017-Sep-12 03:00N 29°37' W 095°02'0 0.0
2017-Sep-12 02:30N 29°37' W 095°02'0 0.0
2017-Sep-12 02:00N 29°37' W 095°02'0 0.0
2017-Sep-12 01:30N 29°37' W 095°02'0 0.0
2017-Sep-12 01:00N 29°37' W 095°02'0 0.0
2017-Sep-12 00:30N 29°37' W 095°02'0 0.0
2017-Sep-12 00:00N 29°37' W 095°02'0 0.0
2017-Sep-11 23:30N 29°37' W 095°02'0 0.0
2017-Sep-11 23:00N 29°37' W 095°02'0 0.0
2017-Sep-11 22:30N 29°37' W 095°02'0 0.0
2017-Sep-11 22:00N 29°37' W 095°02'0 0.0
2017-Sep-11 21:30N 29°37' W 095°02'0 0.0
2017-Sep-11 21:00N 29°37' W 095°02'0 0.1
2017-Sep-11 20:30N 29°37' W 095°01'0 0.0
2017-Sep-11 20:00N 29°37' W 095°01'3 6.1
2017-Sep-11 19:30N 29°37' W 094°58'3 6.5
2017-Sep-11 19:00N 29°40' W 094°59'4 7.4
2017-Sep-11 18:30N 29°43' W 095°01'4 6.9
2017-Sep-11 17:52N 29°46' W 095°05'0 0.1
2017-Sep-11 16:43N 29°46' W 095°05'0 0.5
2017-Sep-11 16:21N 29°46' W 095°05'1 0.9
2017-Sep-11 15:31N 29°45' W 095°06'0 7.4
2017-Sep-11 15:28N 29°46' W 095°05'0 0.1
2017-Sep-11 12:23N 29°46' W 095°05'2 5.4
2017-Sep-11 11:58N 29°44' W 095°07'3 5.3
2017-Sep-11 11:30N 29°45' W 095°10'0 0.4
2017-Sep-11 10:59N 29°44' W 095°10'0 0.0
2017-Sep-11 09:43N 29°44' W 095°10'0 0.0
2017-Sep-11 09:28N 29°44' W 095°10'0 0.0
2017-Sep-11 08:53N 29°44' W 095°10'0 0.0
2017-Sep-11 08:03N 29°44' W 095°10'0 0.0
2017-Sep-11 08:00N 29°44' W 095°10'0 0.0
2017-Sep-11 07:27N 29°44' W 095°10'0 0.0
2017-Sep-11 06:59N 29°44' W 095°10'0 0.0
2017-Sep-11 06:20N 29°44' W 095°10'0 0.0
2017-Sep-11 06:00N 29°44' W 095°10'0 0.0
2017-Sep-11 05:27N 29°44' W 095°10'0 0.0
2017-Sep-11 04:53N 29°44' W 095°10'0 0.0
2017-Sep-11 04:12N 29°44' W 095°10'0 0.0
2017-Sep-11 03:40N 29°44' W 095°10'0 0.0
2017-Sep-11 03:23N 29°44' W 095°10'0 0.0
2017-Sep-11 00:37N 29°44' W 095°10'0 1.1
2017-Sep-11 00:29N 29°45' W 095°10'4 3.8
2017-Sep-10 23:26N 29°46' W 095°05'1 1.1
2017-Sep-10 22:13N 29°47' W 095°05'2 1.4
2017-Sep-10 21:04N 29°45' W 095°06'0 6.2
2017-Sep-10 21:00N 29°46' W 095°05'0 0.4
2017-Sep-10 20:30N 29°46' W 095°06'1 0.3
2017-Sep-10 16:15N 29°45' W 095°06'1 5.2
2017-Sep-10 15:59N 29°46' W 095°05'0 0.1
2017-Sep-10 13:25N 29°46' W 095°05'1 0.1
2017-Sep-10 00:03N 29°46' W 095°05'0 3.4
2017-Sep-09 23:54N 29°46' W 095°05'1 0.8
2017-Sep-09 23:10N 29°46' W 095°06'2 2.6
2017-Sep-09 22:26N 29°47' W 095°04'1 3.0
2017-Sep-09 21:57N 29°46' W 095°05'3 5.5
2017-Sep-09 21:25N 29°44' W 095°07'  
Track history (hours):
 
Tides and Currents Weather Stations Pressure Air Temp Water Temp Dewpoint Dewpoint Depression Visibility Wind Speed Wind Dir Waves Ship Positions

Lucille Brooks

Owner: Kirby Inland Marine, LP, Houston, TX. More information available from US FCC via Universal Licensing System and Coast Guard Vessel Documentation Center.

Last reported at 2017-Sep-19 20:26 UTC. Time now 2017-Sep-19 20:47 UTC.
Position N 29°44' W 095°08'.

Length 110 m; draft 2.9 m.

Type: . MMSI: 367024990.

Date/timePositionNaut miles runAvg speedWind from/ knotsBaromVisibWave heightAir tempDewpointWater temp
2017-Sep-19 20:26N 29°44' W 095°08'8 3.5
2017-Sep-19 18:10N 29°45' W 095°17'2 4.4
2017-Sep-19 17:45N 29°44' W 095°15'1 5.4
2017-Sep-19 17:29N 29°44' W 095°14'4 6.1
2017-Sep-19 16:48N 29°44' W 095°09'2 5.9
2017-Sep-19 16:29N 29°44' W 095°07'1 1.2
2017-Sep-19 15:19N 29°45' W 095°06'0 0.1
2017-Sep-19 14:16N 29°45' W 095°06'3 0.8
2017-Sep-19 11:06N 29°44' W 095°03'0 5.2
2017-Sep-19 11:00N 29°44' W 095°02'1 1.4
2017-Sep-19 10:19N 29°44' W 095°01'1 2.1
2017-Sep-19 10:00N 29°44' W 095°02'1 0.1
2017-Sep-19 05:29N 29°44' W 095°03'1 2.5
2017-Sep-19 05:00N 29°44' W 095°01'1 3.0
2017-Sep-19 04:30N 29°44' W 095°03'1 2.3
2017-Sep-19 04:00N 29°45' W 095°04'0 0.2
2017-Sep-19 03:30N 29°45' W 095°04'1 1.1
2017-Sep-19 02:58N 29°45' W 095°04'2 0.6
2017-Sep-18 23:46N 29°45' W 095°06'0 0.5
2017-Sep-18 23:25N 29°45' W 095°06'1 1.8
2017-Sep-18 22:58N 29°45' W 095°06'0 0.0
2017-Sep-18 19:17N 29°45' W 095°06'0 0.1
2017-Sep-18 18:37N 29°45' W 095°06'0 0.3
2017-Sep-18 18:17N 29°45' W 095°06'1 3.5
2017-Sep-18 17:54N 29°46' W 095°05'0 0.1
2017-Sep-18 14:22N 29°46' W 095°05'2 2.2
2017-Sep-18 13:34N 29°45' W 095°06'0 3.4
2017-Sep-18 13:29N 29°45' W 095°06'2 1.6
2017-Sep-18 12:07N 29°44' W 095°03'1 6.3
2017-Sep-18 12:00N 29°44' W 095°03'1 1.8
2017-Sep-18 11:12N 29°43' W 095°01'0 1.2
2017-Sep-18 10:52N 29°44' W 095°01'0 0.0
2017-Sep-18 08:22N 29°44' W 095°01'0 0.0
2017-Sep-18 07:25N 29°44' W 095°01'0 0.0
2017-Sep-18 07:00N 29°44' W 095°01'2 4.9
2017-Sep-18 06:30N 29°45' W 095°04'2 2.1
2017-Sep-18 05:28N 29°47' W 095°04'2 2.9
2017-Sep-18 04:49N 29°46' W 095°05'1 2.0
2017-Sep-18 04:14N 29°45' W 095°06'0 0.0
2017-Sep-18 02:32N 29°45' W 095°06'0 1.2
2017-Sep-18 02:27N 29°45' W 095°06'1 0.5
2017-Sep-17 23:58N 29°46' W 095°05'0 0.2
2017-Sep-17 23:26N 29°46' W 095°05'2 1.7
2017-Sep-17 22:21N 29°44' W 095°07'1 0.8
2017-Sep-17 20:32N 29°45' W 095°06'0 5.8
2017-Sep-17 20:26N 29°46' W 095°05'0 0.7
2017-Sep-17 19:49N 29°46' W 095°05'0 1.3
2017-Sep-17 19:30N 29°46' W 095°05'0 0.1
2017-Sep-17 17:44N 29°46' W 095°05'3 7.4
2017-Sep-17 17:22N 29°44' W 095°08'5 6.0
2017-Sep-17 16:30N 29°44' W 095°14'3 0.8
2017-Sep-17 13:29N 29°45' W 095°11'3 5.0
2017-Sep-17 12:50N 29°44' W 095°08'3 4.5
2017-Sep-17 12:15N 29°46' W 095°05'1 0.4
2017-Sep-17 08:49N 29°47' W 095°05'1 2.0
2017-Sep-17 08:16N 29°46' W 095°05'1 0.3
2017-Sep-17 05:36N 29°45' W 095°06'2 1.1
2017-Sep-17 03:41N 29°44' W 095°03'1 5.2
2017-Sep-17 03:30N 29°44' W 095°02'2 3.9
2017-Sep-17 03:00N 29°42' W 095°01'2 2.7
2017-Sep-17 02:21N 29°43' W 095°03'0 0.0
2017-Sep-16 20:02N 29°43' W 095°03'0 0.0
2017-Sep-16 19:44N 29°43' W 095°03'0 0.0
2017-Sep-16 19:30N 29°43' W 095°03'0 0.0
2017-Sep-16 18:58N 29°43' W 095°03'0 0.0
2017-Sep-16 18:29N 29°43' W 095°03'0 0.0
2017-Sep-16 17:44N 29°43' W 095°03'0 0.0
2017-Sep-16 17:29N 29°43' W 095°03'0 0.0
2017-Sep-16 17:00N 29°43' W 095°03'2 3.8
2017-Sep-16 16:30N 29°43' W 095°01'3 6.8
2017-Sep-16 16:00N 29°45' W 095°04'2 0.6
2017-Sep-16 12:02N 29°48' W 095°04'2 4.0
2017-Sep-16 11:34N 29°46' W 095°05'0 5.2
2017-Sep-16 11:30N 29°46' W 095°05'3 5.7
2017-Sep-16 10:54N 29°44' W 095°09'4 5.8
2017-Sep-16 10:10N 29°44' W 095°14'0 0.6
2017-Sep-16 09:59N 29°44' W 095°14'0 0.1
2017-Sep-16 09:29N 29°44' W 095°14'0 0.0
2017-Sep-16 08:52N 29°44' W 095°14'0 0.0
2017-Sep-16 08:30N 29°44' W 095°14'0 0.0
2017-Sep-16 08:00N 29°44' W 095°14'2 2.2
2017-Sep-16 07:09N 29°44' W 095°12'1 6.1
2017-Sep-16 06:58N 29°45' W 095°11'3 5.8
2017-Sep-16 06:30N 29°44' W 095°08'4 1.4
2017-Sep-16 03:42N 29°47' W 095°05'1 3.2
2017-Sep-16 03:23N 29°46' W 095°05'1 1.5
2017-Sep-16 02:24N 29°45' W 095°06'2 0.5
2017-Sep-15 23:05N 29°46' W 095°05'1 0.4
2017-Sep-15 21:16N 29°45' W 095°06'0 1.2
2017-Sep-15 20:55N 29°46' W 095°06'0 0.0
2017-Sep-15 19:25N 29°46' W 095°06'1 0.4
2017-Sep-15 18:05N 29°46' W 095°05'2 6.3
2017-Sep-15 17:48N 29°44' W 095°06'2 6.0
2017-Sep-15 17:30N 29°44' W 095°08'1 0.3
2017-Sep-15 13:07N 29°45' W 095°10'0 1.3
2017-Sep-15 13:00N 29°45' W 095°10'0 0.0
2017-Sep-15 12:24N 29°45' W 095°10'0 0.0
2017-Sep-15 10:41N 29°45' W 095°10'0 0.0
2017-Sep-15 10:22N 29°45' W 095°10'0 0.0
2017-Sep-15 09:41N 29°44' W 095°10'0 0.0
2017-Sep-15 09:21N 29°44' W 095°10'0 0.0
2017-Sep-15 08:33N 29°44' W 095°10'0 0.1
2017-Sep-15 08:29N 29°44' W 095°10'0 0.0
2017-Sep-15 07:59N 29°44' W 095°10'0 0.0
2017-Sep-15 07:29N 29°44' W 095°10'0 0.0
2017-Sep-15 06:58N 29°45' W 095°10'0 0.0
2017-Sep-15 06:30N 29°44' W 095°10'0 0.0
2017-Sep-15 06:00N 29°44' W 095°10'0 0.0
2017-Sep-15 05:30N 29°45' W 095°10'0 0.0
2017-Sep-15 04:59N 29°44' W 095°10'0 0.0
2017-Sep-15 04:29N 29°44' W 095°10'0 0.0
2017-Sep-15 04:00N 29°44' W 095°10'0 0.0
2017-Sep-15 03:27N 29°44' W 095°10'0 0.0
2017-Sep-15 03:00N 29°44' W 095°10'0 0.0
2017-Sep-15 02:30N 29°45' W 095°10'0 0.0
2017-Sep-15 01:59N 29°45' W 095°10'0 0.0
2017-Sep-15 01:29N 29°44' W 095°10'0 0.0
2017-Sep-15 00:59N 29°45' W 095°10'0 0.0
2017-Sep-15 00:30N 29°44' W 095°10'0 0.0
2017-Sep-14 23:06N 29°45' W 095°10'0 0.0
2017-Sep-14 22:58N 29°45' W 095°10'0 0.0
2017-Sep-14 21:49N 29°44' W 095°10'0 0.0
2017-Sep-14 21:24N 29°44' W 095°10'0 0.3
2017-Sep-14 21:00N 29°45' W 095°10'3 5.9
2017-Sep-14 20:30N 29°45' W 095°06'2 0.6
2017-Sep-14 16:30N 29°44' W 095°04'3 5.3
2017-Sep-14 16:00N 29°43' W 095°01'2 3.3
2017-Sep-14 15:30N 29°43' W 095°03'0 0.1
2017-Sep-14 13:35N 29°43' W 095°03'0 0.0
2017-Sep-14 13:17N 29°43' W 095°03'0 0.0
2017-Sep-14 13:00N 29°43' W 095°03'0 0.0
2017-Sep-14 12:28N 29°43' W 095°03'0 0.0
2017-Sep-14 12:00N 29°43' W 095°03'0 0.0
2017-Sep-14 05:29N 29°43' W 095°03'1 1.8
2017-Sep-14 05:00N 29°42' W 095°02'1 2.8
2017-Sep-14 04:30N 29°44' W 095°02'3 1.1
2017-Sep-14 01:46N 29°46' W 095°05'2 6.0
2017-Sep-14 01:26N 29°44' W 095°03'3 5.8
2017-Sep-14 01:00N 29°43' W 095°01'3 5.8
2017-Sep-14 00:30N 29°41' W 094°59'3 6.5
2017-Sep-14 00:00N 29°38' W 094°58'3 5.2
2017-Sep-13 23:30N 29°37' W 095°00'1 1.9
2017-Sep-13 23:00N 29°37' W 095°01'0 0.0
2017-Sep-13 22:30N 29°37' W 095°01'0 0.0
2017-Sep-13 22:00N 29°37' W 095°01'0 0.0
2017-Sep-13 21:30N 29°37' W 095°01'0 0.0
2017-Sep-13 21:00N 29°37' W 095°01'0 0.0
2017-Sep-13 20:30N 29°37' W 095°01'0 0.0
2017-Sep-13 20:00N 29°37' W 095°01'0 0.0
2017-Sep-13 19:30N 29°37' W 095°01'0 0.0
2017-Sep-13 19:00N 29°37' W 095°01'0 0.0
2017-Sep-13 18:30N 29°37' W 095°01'0 0.0
2017-Sep-13 18:00N 29°37' W 095°01'0 0.0
2017-Sep-13 17:30N 29°37' W 095°01'0 0.0
2017-Sep-13 17:00N 29°37' W 095°01'0 0.0
2017-Sep-13 16:30N 29°37' W 095°01'0 0.0
2017-Sep-13 16:00N 29°37' W 095°01'0 0.3
2017-Sep-13 15:30N 29°37' W 095°01'0 0.3
2017-Sep-13 15:00N 29°37' W 095°01'0 0.0
2017-Sep-13 14:30N 29°37' W 095°01'0 0.0
2017-Sep-13 14:00N 29°37' W 095°01'0 0.0
2017-Sep-13 13:30N 29°37' W 095°01'0 0.0
2017-Sep-13 13:00N 29°37' W 095°01'2 3.4
2017-Sep-13 12:30N 29°37' W 094°60'2 3.6
2017-Sep-13 12:00N 29°38' W 094°58'3 5.1
2017-Sep-13 11:30N 29°40' W 094°59'3 5.0
2017-Sep-13 11:00N 29°42' W 095°00'2 4.6
2017-Sep-13 10:29N 29°44' W 095°02'2 4.8
2017-Sep-13 10:00N 29°45' W 095°04'1 2.7
2017-Sep-13 09:30N 29°47' W 095°05'0 0.0
2017-Sep-13 08:20N 29°47' W 095°05'0 0.0
2017-Sep-13 07:54N 29°47' W 095°05'0 0.0
2017-Sep-13 07:30N 29°47' W 095°05'0 0.0
2017-Sep-13 06:03N 29°47' W 095°05'0 0.0
2017-Sep-13 05:57N 29°47' W 095°05'0 0.0
2017-Sep-13 05:24N 29°47' W 095°05'0 0.1
2017-Sep-13 05:00N 29°47' W 095°05'1 0.8
2017-Sep-13 04:04N 29°46' W 095°05'1 4.0
2017-Sep-13 03:50N 29°45' W 095°04'2 4.7
2017-Sep-13 03:30N 29°44' W 095°03'2 4.0
2017-Sep-13 03:00N 29°43' W 095°01'2 3.4
2017-Sep-13 02:30N 29°43' W 095°03'0 0.0
2017-Sep-12 16:28N 29°43' W 095°03'0 0.1
2017-Sep-12 15:58N 29°43' W 095°03'2 4.0
2017-Sep-12 15:30N 29°42' W 095°01'2 4.3
2017-Sep-12 15:00N 29°44' W 095°03'4 4.1
2017-Sep-12 14:04N 29°48' W 095°04'0 0.4
2017-Sep-12 13:52N 29°48' W 095°04'0 0.0
2017-Sep-12 13:30N 29°48' W 095°04'0 0.0
2017-Sep-12 13:00N 29°48' W 095°04'0 0.0
2017-Sep-12 12:19N 29°48' W 095°04'0 1.4
2017-Sep-12 12:00N 29°47' W 095°04'0 0.6
2017-Sep-12 11:27N 29°47' W 095°04'1 1.3
2017-Sep-12 11:00N 29°48' W 095°04'3 3.3
2017-Sep-12 10:01N 29°44' W 095°03'0 5.9
2017-Sep-12 09:57N 29°44' W 095°03'2 5.1
2017-Sep-12 09:29N 29°42' W 095°01'3 5.6
2017-Sep-12 09:00N 29°41' W 094°59'3 6.5
2017-Sep-12 08:30N 29°38' W 094°58'3 5.3
2017-Sep-12 08:00N 29°37' W 095°00'1 1.8
2017-Sep-12 07:30N 29°37' W 095°02'0 0.0
2017-Sep-12 07:00N 29°37' W 095°02'0 0.0
2017-Sep-12 06:30N 29°37' W 095°02'0 0.0
2017-Sep-12 06:00N 29°37' W 095°02'0 0.0
2017-Sep-12 05:30N 29°37' W 095°02'0 0.0
2017-Sep-12 05:00N 29°37' W 095°02'0 0.0
2017-Sep-12 04:30N 29°37' W 095°02'0 0.0
2017-Sep-12 04:00N 29°37' W 095°02'0 0.0
2017-Sep-12 03:30N 29°37' W 095°02'0 0.0
2017-Sep-12 03:00N 29°37' W 095°02'0 0.0
2017-Sep-12 02:30N 29°37' W 095°02'0 0.0
2017-Sep-12 02:00N 29°37' W 095°02'0 0.0
2017-Sep-12 01:30N 29°37' W 095°02'0 0.0
2017-Sep-12 01:00N 29°37' W 095°02'0 0.0
2017-Sep-12 00:30N 29°37' W 095°02'0 0.0
2017-Sep-12 00:00N 29°37' W 095°02'0 0.0
2017-Sep-11 23:30N 29°37' W 095°02'0 0.0
2017-Sep-11 23:00N 29°37' W 095°02'0 0.0
2017-Sep-11 22:30N 29°37' W 095°02'0 0.0
2017-Sep-11 22:00N 29°37' W 095°02'0 0.0
2017-Sep-11 21:30N 29°37' W 095°02'0 0.0
2017-Sep-11 21:00N 29°37' W 095°02'0 0.1
2017-Sep-11 20:30N 29°37' W 095°01'0 0.0
2017-Sep-11 20:00N 29°37' W 095°01'3 6.1
2017-Sep-11 19:30N 29°37' W 094°58'3 6.5
2017-Sep-11 19:00N 29°40' W 094°59'4 7.4
2017-Sep-11 18:30N 29°43' W 095°01'4 6.9
2017-Sep-11 17:52N 29°46' W 095°05'0 0.1
2017-Sep-11 16:43N 29°46' W 095°05'0 0.5
2017-Sep-11 16:21N 29°46' W 095°05'1 0.9
2017-Sep-11 15:31N 29°45' W 095°06'0 7.4
2017-Sep-11 15:28N 29°46' W 095°05'0 0.1
2017-Sep-11 12:23N 29°46' W 095°05'2 5.4
2017-Sep-11 11:58N 29°44' W 095°07'3 5.3
2017-Sep-11 11:30N 29°45' W 095°10'0 0.4
2017-Sep-11 10:59N 29°44' W 095°10'0 0.0
2017-Sep-11 09:43N 29°44' W 095°10'0 0.0
2017-Sep-11 09:28N 29°44' W 095°10'0 0.0
2017-Sep-11 08:53N 29°44' W 095°10'0 0.0
2017-Sep-11 08:03N 29°44' W 095°10'0 0.0
2017-Sep-11 08:00N 29°44' W 095°10'0 0.0
2017-Sep-11 07:27N 29°44' W 095°10'0 0.0
2017-Sep-11 06:59N 29°44' W 095°10'0 0.0
2017-Sep-11 06:20N 29°44' W 095°10'0 0.0
2017-Sep-11 06:00N 29°44' W 095°10'0 0.0
2017-Sep-11 05:27N 29°44' W 095°10'0 0.0
2017-Sep-11 04:53N 29°44' W 095°10'0 0.0
2017-Sep-11 04:12N 29°44' W 095°10'0 0.0
2017-Sep-11 03:40N 29°44' W 095°10'0 0.0
2017-Sep-11 03:23N 29°44' W 095°10'0 0.0
2017-Sep-11 00:37N 29°44' W 095°10'0 1.1
2017-Sep-11 00:29N 29°45' W 095°10'4 3.8
2017-Sep-10 23:26N 29°46' W 095°05'1 1.1
2017-Sep-10 22:13N 29°47' W 095°05'2 1.4
2017-Sep-10 21:04N 29°45' W 095°06'0 6.2
2017-Sep-10 21:00N 29°46' W 095°05'0 0.4
2017-Sep-10 20:30N 29°46' W 095°06'1 0.3
2017-Sep-10 16:15N 29°45' W 095°06'1 5.2
2017-Sep-10 15:59N 29°46' W 095°05'0 0.1
2017-Sep-10 13:25N 29°46' W 095°05'1 0.1
2017-Sep-10 00:03N 29°46' W 095°05'0 3.4
2017-Sep-09 23:54N 29°46' W 095°05'1 0.8
2017-Sep-09 23:10N 29°46' W 095°06'2 2.6
2017-Sep-09 22:26N 29°47' W 095°04'1 3.0
2017-Sep-09 21:57N 29°46' W 095°05'3 5.5
2017-Sep-09 21:25N 29°44' W 095°07'  

Dump ship's entire track history